Wing, Illinois
Current Conditions -  °F | °C
As of 6:15 PM on Thursday 27 Nov 2014 (Local Time) from KPNT Reporting Station
Scattered Clouds Scattered Clouds  
Wind Chill: 10°   Ceiling: Unl
Heat Index: 21°   Visibility: 10mi
Dew Point: 15°   Wind: 10mph
Humidity: 78%   Direction: 280°W
Pressure: 30.44"   Gusts: NA
Location:  40.7521°N, 88.412°W
Report Text: KPNT 280015Z AUTO 28009KT 10SM SCT030 M06/M09 A3044 RMK AO2 T10601092
Loading
Personal Weather Stations






























Interactive Weather Map New forecast layout! Learn more

10-Day Weather Forecast

Advertisements
Track Severe Weather on mobile